sensor_id;sensor_type;location;lat;lon;timestamp;temperature;humidity
17728;DHT22;8984;49.268;12.302;2023-11-21T00:00:45;10.30;99.90
17728;DHT22;8984;49.268;12.302;2023-11-21T00:03:14;10.20;99.90
17728;DHT22;8984;49.268;12.302;2023-11-21T00:05:52;10.30;99.90
17728;DHT22;8984;49.268;12.302;2023-11-21T00:08:24;10.30;99.90
17728;DHT22;8984;49.268;12.302;2023-11-21T00:10:57;10.30;99.90
17728;DHT22;8984;49.268;12.302;2023-11-21T00:13:27;10.30;99.90
17728;DHT22;8984;49.268;12.302;2023-11-21T00:15:56;10.20;99.90
17728;DHT22;8984;49.268;12.302;2023-11-21T00:18:30;10.20;99.90
17728;DHT22;8984;49.268;12.302;2023-11-21T00:21:31;10.20;99.90
17728;DHT22;8984;49.268;12.302;2023-11-21T00:23:58;10.10;99.90
17728;DHT22;8984;49.268;12.302;2023-11-21T00:26:24;10.10;99.90
17728;DHT22;8984;49.268;12.302;2023-11-21T00:28:51;10.20;99.90
17728;DHT22;8984;49.268;12.302;2023-11-21T00:31:18;10.20;99.90
17728;DHT22;8984;49.268;12.302;2023-11-21T00:33:45;10.10;99.90
17728;DHT22;8984;49.268;12.302;2023-11-21T00:36:12;10.10;99.90
17728;DHT22;8984;49.268;12.302;2023-11-21T00:38:40;10.10;99.90
17728;DHT22;8984;49.268;12.302;2023-11-21T00:41:07;10.10;99.90
17728;DHT22;8984;49.268;12.302;2023-11-21T00:43:35;10.10;99.90
17728;DHT22;8984;49.268;12.302;2023-11-21T00:46:04;10.10;99.90
17728;DHT22;8984;49.268;12.302;2023-11-21T00:48:32;10.10;99.90
17728;DHT22;8984;49.268;12.302;2023-11-21T00:51:02;10.10;99.90
17728;DHT22;8984;49.268;12.302;2023-11-21T00:53:29;10.10;99.90
17728;DHT22;8984;49.268;12.302;2023-11-21T00:55:57;10.10;99.90
17728;DHT22;8984;49.268;12.302;2023-11-21T00:58:24;10.10;99.90
17728;DHT22;8984;49.268;12.302;2023-11-21T01:00:51;10.10;99.90
17728;DHT22;8984;49.268;12.302;2023-11-21T01:03:18;10.20;99.90
17728;DHT22;8984;49.268;12.302;2023-11-21T01:05:45;10.20;99.90
17728;DHT22;8984;49.268;12.302;2023-11-21T01:08:12;10.20;99.90
17728;DHT22;8984;49.268;12.302;2023-11-21T01:10:40;10.10;99.90
17728;DHT22;8984;49.268;12.302;2023-11-21T01:13:14;10.10;99.90
17728;DHT22;8984;49.268;12.302;2023-11-21T01:15:46;10.10;99.90
17728;DHT22;8984;49.268;12.302;2023-11-21T01:18:21;10.00;99.90
17728;DHT22;8984;49.268;12.302;2023-11-21T01:20:57;9.90;99.90
17728;DHT22;8984;49.268;12.302;2023-11-21T01:23:25;10.00;99.90
17728;DHT22;8984;49.268;12.302;2023-11-21T01:26:02;9.90;99.90
17728;DHT22;8984;49.268;12.302;2023-11-21T01:28:33;9.90;99.90
17728;DHT22;8984;49.268;12.302;2023-11-21T01:31:25;9.90;99.90
17728;DHT22;8984;49.268;12.302;2023-11-21T01:34:02;9.80;99.90
17728;DHT22;8984;49.268;12.302;2023-11-21T01:36:32;9.90;99.90
17728;DHT22;8984;49.268;12.302;2023-11-21T01:39:02;9.90;99.90
17728;DHT22;8984;49.268;12.302;2023-11-21T01:41:34;9.80;99.90
17728;DHT22;8984;49.268;12.302;2023-11-21T01:44:19;9.90;99.90
17728;DHT22;8984;49.268;12.302;2023-11-21T01:46:50;9.80;99.90
17728;DHT22;8984;49.268;12.302;2023-11-21T01:49:32;9.80;99.90
17728;DHT22;8984;49.268;12.302;2023-11-21T01:52:06;9.70;99.90
17728;DHT22;8984;49.268;12.302;2023-11-21T01:54:41;9.70;99.90
17728;DHT22;8984;49.268;12.302;2023-11-21T01:57:09;9.70;99.90
17728;DHT22;8984;49.268;12.302;2023-11-21T01:59:46;9.70;99.90
17728;DHT22;8984;49.268;12.302;2023-11-21T02:02:19;9.70;99.90
17728;DHT22;8984;49.268;12.302;2023-11-21T02:04:57;9.80;99.90
17728;DHT22;8984;49.268;12.302;2023-11-21T02:07:24;9.70;99.90
17728;DHT22;8984;49.268;12.302;2023-11-21T02:09:55;9.60;99.90
17728;DHT22;8984;49.268;12.302;2023-11-21T02:12:22;9.60;99.90
17728;DHT22;8984;49.268;12.302;2023-11-21T02:14:54;9.70;99.90
17728;DHT22;8984;49.268;12.302;2023-11-21T02:17:26;9.60;99.90
17728;DHT22;8984;49.268;12.302;2023-11-21T02:19:54;9.70;99.90
17728;DHT22;8984;49.268;12.302;2023-11-21T02:22:30;9.60;99.90
17728;DHT22;8984;49.268;12.302;2023-11-21T02:25:03;9.60;99.90
17728;DHT22;8984;49.268;12.302;2023-11-21T02:27:35;9.60;99.90
17728;DHT22;8984;49.268;12.302;2023-11-21T02:30:04;9.60;99.90
17728;DHT22;8984;49.268;12.302;2023-11-21T02:32:33;9.60;99.90
17728;DHT22;8984;49.268;12.302;2023-11-21T02:35:13;9.60;99.90
17728;DHT22;8984;49.268;12.302;2023-11-21T02:37:44;9.60;99.90
17728;DHT22;8984;49.268;12.302;2023-11-21T02:40:14;9.60;99.90
17728;DHT22;8984;49.268;12.302;2023-11-21T02:42:53;9.60;99.90
17728;DHT22;8984;49.268;12.302;2023-11-21T02:45:22;9.60;99.90
17728;DHT22;8984;49.268;12.302;2023-11-21T02:47:50;9.60;99.90
17728;DHT22;8984;49.268;12.302;2023-11-21T02:50:22;9.60;99.90
17728;DHT22;8984;49.268;12.302;2023-11-21T02:52:55;9.60;99.90
17728;DHT22;8984;49.268;12.302;2023-11-21T02:55:31;9.60;99.90
17728;DHT22;8984;49.268;12.302;2023-11-21T02:58:03;9.60;99.90
17728;DHT22;8984;49.268;12.302;2023-11-21T03:00:34;9.60;99.90
17728;DHT22;8984;49.268;12.302;2023-11-21T03:03:06;9.60;99.90
17728;DHT22;8984;49.268;12.302;2023-11-21T03:05:34;9.60;99.90
17728;DHT22;8984;49.268;12.302;2023-11-21T03:08:10;9.60;99.90
17728;DHT22;8984;49.268;12.302;2023-11-21T03:10:45;9.60;99.90
17728;DHT22;8984;49.268;12.302;2023-11-21T03:13:16;9.60;99.90
17728;DHT22;8984;49.268;12.302;2023-11-21T03:15:58;9.60;99.90
17728;DHT22;8984;49.268;12.302;2023-11-21T03:18:25;9.60;99.90
17728;DHT22;8984;49.268;12.302;2023-11-21T03:20:56;9.60;99.90
17728;DHT22;8984;49.268;12.302;2023-11-21T03:23:25;9.60;99.90
17728;DHT22;8984;49.268;12.302;2023-11-21T03:26:01;9.60;99.90
17728;DHT22;8984;49.268;12.302;2023-11-21T03:28:52;9.70;99.90
17728;DHT22;8984;49.268;12.302;2023-11-21T03:31:24;9.70;99.90
17728;DHT22;8984;49.268;12.302;2023-11-21T03:34:03;9.60;99.90
17728;DHT22;8984;49.268;12.302;2023-11-21T03:36:45;9.60;99.90
17728;DHT22;8984;49.268;12.302;2023-11-21T03:39:25;9.60;99.90
17728;DHT22;8984;49.268;12.302;2023-11-21T03:42:01;9.60;99.90
17728;DHT22;8984;49.268;12.302;2023-11-21T03:44:33;9.60;99.90
17728;DHT22;8984;49.268;12.302;2023-11-21T03:47:09;9.60;99.90
17728;DHT22;8984;49.268;12.302;2023-11-21T03:49:37;9.60;99.90
17728;DHT22;8984;49.268;12.302;2023-11-21T03:52:24;9.60;99.90
17728;DHT22;8984;49.268;12.302;2023-11-21T03:55:17;9.70;99.90
17728;DHT22;8984;49.268;12.302;2023-11-21T03:57:47;9.70;99.90
17728;DHT22;8984;49.268;12.302;2023-11-21T04:00:16;9.70;99.90
17728;DHT22;8984;49.268;12.302;2023-11-21T04:02:49;9.60;99.90
17728;DHT22;8984;49.268;12.302;2023-11-21T04:05:19;9.60;99.90
17728;DHT22;8984;49.268;12.302;2023-11-21T04:07:55;9.70;99.90
17728;DHT22;8984;49.268;12.302;2023-11-21T04:10:34;9.70;99.90
17728;DHT22;8984;49.268;12.302;2023-11-21T04:13:07;9.70;99.90
17728;DHT22;8984;49.268;12.302;2023-11-21T04:15:42;9.70;99.90
17728;DHT22;8984;49.268;12.302;2023-11-21T04:20:57;9.60;99.90
17728;DHT22;8984;49.268;12.302;2023-11-21T04:23:29;9.50;99.90
17728;DHT22;8984;49.268;12.302;2023-11-21T04:26:11;9.50;99.90
17728;DHT22;8984;49.268;12.302;2023-11-21T04:28:42;9.50;99.90
17728;DHT22;8984;49.268;12.302;2023-11-21T04:31:20;9.40;99.90
17728;DHT22;8984;49.268;12.302;2023-11-21T04:34:02;9.40;99.90
17728;DHT22;8984;49.268;12.302;2023-11-21T04:36:34;9.40;99.90
17728;DHT22;8984;49.268;12.302;2023-11-21T04:39:18;9.40;99.90
17728;DHT22;8984;49.268;12.302;2023-11-21T04:42:15;9.40;99.90
17728;DHT22;8984;49.268;12.302;2023-11-21T04:45:10;9.40;99.90
17728;DHT22;8984;49.268;12.302;2023-11-21T04:47:57;9.40;99.90
17728;DHT22;8984;49.268;12.302;2023-11-21T04:50:32;9.30;99.90
17728;DHT22;8984;49.268;12.302;2023-11-21T04:53:07;9.40;99.90
17728;DHT22;8984;49.268;12.302;2023-11-21T04:56:13;9.40;99.90
17728;DHT22;8984;49.268;12.302;2023-11-21T04:58:47;9.40;99.90
17728;DHT22;8984;49.268;12.302;2023-11-21T05:01:17;9.40;99.90
17728;DHT22;8984;49.268;12.302;2023-11-21T05:03:48;9.40;99.90
17728;DHT22;8984;49.268;12.302;2023-11-21T05:06:22;9.40;99.90
17728;DHT22;8984;49.268;12.302;2023-11-21T05:08:56;9.40;99.90
17728;DHT22;8984;49.268;12.302;2023-11-21T05:11:28;9.40;99.90
17728;DHT22;8984;49.268;12.302;2023-11-21T05:13:57;9.40;99.90
17728;DHT22;8984;49.268;12.302;2023-11-21T05:16:47;9.50;99.90
17728;DHT22;8984;49.268;12.302;2023-11-21T05:19:17;9.60;99.90
17728;DHT22;8984;49.268;12.302;2023-11-21T05:21:50;9.50;99.90
17728;DHT22;8984;49.268;12.302;2023-11-21T05:24:20;9.50;99.90
17728;DHT22;8984;49.268;12.302;2023-11-21T05:26:50;9.50;99.90
17728;DHT22;8984;49.268;12.302;2023-11-21T05:29:18;9.50;99.90
17728;DHT22;8984;49.268;12.302;2023-11-21T05:31:55;9.50;99.90
17728;DHT22;8984;49.268;12.302;2023-11-21T05:34:24;9.50;99.90
17728;DHT22;8984;49.268;12.302;2023-11-21T05:36:54;9.50;99.90
17728;DHT22;8984;49.268;12.302;2023-11-21T05:39:25;9.60;99.90
17728;DHT22;8984;49.268;12.302;2023-11-21T05:41:54;9.60;99.90
17728;DHT22;8984;49.268;12.302;2023-11-21T05:44:23;9.60;99.90
17728;DHT22;8984;49.268;12.302;2023-11-21T05:46:54;9.60;99.90
17728;DHT22;8984;49.268;12.302;2023-11-21T05:49:29;9.60;99.90
17728;DHT22;8984;49.268;12.302;2023-11-21T05:51:58;9.60;99.90
17728;DHT22;8984;49.268;12.302;2023-11-21T05:54:32;9.60;99.90
17728;DHT22;8984;49.268;12.302;2023-11-21T05:57:07;9.60;99.90
17728;DHT22;8984;49.268;12.302;2023-11-21T05:59:41;9.60;99.90
17728;DHT22;8984;49.268;12.302;2023-11-21T06:02:12;9.60;99.90
17728;DHT22;8984;49.268;12.302;2023-11-21T06:04:39;9.60;99.90
17728;DHT22;8984;49.268;12.302;2023-11-21T06:07:10;9.60;99.90
17728;DHT22;8984;49.268;12.302;2023-11-21T06:09:49;9.50;99.90
17728;DHT22;8984;49.268;12.302;2023-11-21T06:12:21;9.50;99.90
17728;DHT22;8984;49.268;12.302;2023-11-21T06:14:55;9.60;99.90
17728;DHT22;8984;49.268;12.302;2023-11-21T06:17:29;9.60;99.90
17728;DHT22;8984;49.268;12.302;2023-11-21T06:20:11;9.60;99.90
17728;DHT22;8984;49.268;12.302;2023-11-21T06:22:40;9.60;99.90
17728;DHT22;8984;49.268;12.302;2023-11-21T06:25:37;9.60;99.90
17728;DHT22;8984;49.268;12.302;2023-11-21T06:28:08;9.60;99.90
17728;DHT22;8984;49.268;12.302;2023-11-21T06:30:44;9.60;99.90
17728;DHT22;8984;49.268;12.302;2023-11-21T06:33:16;9.60;99.90
17728;DHT22;8984;49.268;12.302;2023-11-21T06:35:45;9.60;99.90
17728;DHT22;8984;49.268;12.302;2023-11-21T06:38:22;9.60;99.90
17728;DHT22;8984;49.268;12.302;2023-11-21T06:40:54;9.60;99.90
17728;DHT22;8984;49.268;12.302;2023-11-21T06:43:28;9.60;99.90
17728;DHT22;8984;49.268;12.302;2023-11-21T06:45:58;9.70;99.90
17728;DHT22;8984;49.268;12.302;2023-11-21T06:48:26;9.60;99.90
17728;DHT22;8984;49.268;12.302;2023-11-21T06:51:04;9.60;99.90
17728;DHT22;8984;49.268;12.302;2023-11-21T06:53:33;9.60;99.90
17728;DHT22;8984;49.268;12.302;2023-11-21T06:56:02;9.60;99.90
17728;DHT22;8984;49.268;12.302;2023-11-21T06:58:52;9.70;99.90
17728;DHT22;8984;49.268;12.302;2023-11-21T07:01:26;9.70;99.90
17728;DHT22;8984;49.268;12.302;2023-11-21T07:04:14;9.70;99.90
17728;DHT22;8984;49.268;12.302;2023-11-21T07:06:44;9.70;99.90
17728;DHT22;8984;49.268;12.302;2023-11-21T07:09:11;9.70;99.90
17728;DHT22;8984;49.268;12.302;2023-11-21T07:11:45;9.70;99.90
17728;DHT22;8984;49.268;12.302;2023-11-21T07:14:15;9.80;99.90
17728;DHT22;8984;49.268;12.302;2023-11-21T07:16:45;9.80;99.90
17728;DHT22;8984;49.268;12.302;2023-11-21T07:19:17;9.80;99.90
17728;DHT22;8984;49.268;12.302;2023-11-21T07:21:58;9.80;99.90
17728;DHT22;8984;49.268;12.302;2023-11-21T07:24:38;9.90;99.90
17728;DHT22;8984;49.268;12.302;2023-11-21T07:27:17;9.90;99.90
17728;DHT22;8984;49.268;12.302;2023-11-21T07:29:45;9.90;99.90
17728;DHT22;8984;49.268;12.302;2023-11-21T07:32:19;10.00;99.90
17728;DHT22;8984;49.268;12.302;2023-11-21T07:34:48;10.00;99.90
17728;DHT22;8984;49.268;12.302;2023-11-21T07:37:16;10.00;99.90
17728;DHT22;8984;49.268;12.302;2023-11-21T07:39:52;10.10;99.90
17728;DHT22;8984;49.268;12.302;2023-11-21T07:42:25;10.10;99.90
17728;DHT22;8984;49.268;12.302;2023-11-21T07:45:02;10.10;99.90
17728;DHT22;8984;49.268;12.302;2023-11-21T07:47:34;10.10;99.90
17728;DHT22;8984;49.268;12.302;2023-11-21T07:50:08;10.10;99.90
17728;DHT22;8984;49.268;12.302;2023-11-21T07:52:50;10.20;99.90
17728;DHT22;8984;49.268;12.302;2023-11-21T07:55:20;10.10;99.90
17728;DHT22;8984;49.268;12.302;2023-11-21T07:57:53;10.10;99.90
17728;DHT22;8984;49.268;12.302;2023-11-21T08:00:25;10.20;99.90
17728;DHT22;8984;49.268;12.302;2023-11-21T08:02:56;10.20;99.90
17728;DHT22;8984;49.268;12.302;2023-11-21T08:05:42;10.20;99.90
17728;DHT22;8984;49.268;12.302;2023-11-21T08:08:12;10.20;99.90
17728;DHT22;8984;49.268;12.302;2023-11-21T08:10:44;10.20;99.90
17728;DHT22;8984;49.268;12.302;2023-11-21T08:13:24;10.30;99.90
17728;DHT22;8984;49.268;12.302;2023-11-21T08:16:22;10.30;99.90
17728;DHT22;8984;49.268;12.302;2023-11-21T08:18:51;10.40;99.90
17728;DHT22;8984;49.268;12.302;2023-11-21T08:21:23;10.30;99.90
17728;DHT22;8984;49.268;12.302;2023-11-21T08:23:51;10.40;99.90
17728;DHT22;8984;49.268;12.302;2023-11-21T08:26:21;10.40;99.90
17728;DHT22;8984;49.268;12.302;2023-11-21T08:28:51;10.40;99.90
17728;DHT22;8984;49.268;12.302;2023-11-21T08:31:34;10.50;99.90
17728;DHT22;8984;49.268;12.302;2023-11-21T08:34:23;10.50;99.90
17728;DHT22;8984;49.268;12.302;2023-11-21T08:37:02;10.50;99.90
17728;DHT22;8984;49.268;12.302;2023-11-21T08:39:33;10.60;99.90
17728;DHT22;8984;49.268;12.302;2023-11-21T08:42:03;10.60;99.90
17728;DHT22;8984;49.268;12.302;2023-11-21T08:44:56;10.60;99.90
17728;DHT22;8984;49.268;12.302;2023-11-21T08:47:36;10.60;99.90
17728;DHT22;8984;49.268;12.302;2023-11-21T08:50:07;10.60;99.90
17728;DHT22;8984;49.268;12.302;2023-11-21T08:52:48;10.70;99.90
17728;DHT22;8984;49.268;12.302;2023-11-21T08:55:16;10.70;99.90
17728;DHT22;8984;49.268;12.302;2023-11-21T08:57:47;10.70;99.90
17728;DHT22;8984;49.268;12.302;2023-11-21T09:00:17;10.70;99.90
17728;DHT22;8984;49.268;12.302;2023-11-21T09:02:45;10.70;99.90
17728;DHT22;8984;49.268;12.302;2023-11-21T09:05:13;10.70;99.90
17728;DHT22;8984;49.268;12.302;2023-11-21T09:07:43;10.70;99.90
17728;DHT22;8984;49.268;12.302;2023-11-21T09:10:26;10.70;99.90
17728;DHT22;8984;49.268;12.302;2023-11-21T09:12:55;10.70;99.90
17728;DHT22;8984;49.268;12.302;2023-11-21T09:15:40;10.80;99.90
17728;DHT22;8984;49.268;12.302;2023-11-21T09:18:14;10.90;99.90
17728;DHT22;8984;49.268;12.302;2023-11-21T09:20:43;10.80;99.90
17728;DHT22;8984;49.268;12.302;2023-11-21T09:23:12;10.80;99.90
17728;DHT22;8984;49.268;12.302;2023-11-21T09:25:48;10.80;99.90
17728;DHT22;8984;49.268;12.302;2023-11-21T09:28:17;10.90;99.90
17728;DHT22;8984;49.268;12.302;2023-11-21T09:30:56;10.90;99.90
17728;DHT22;8984;49.268;12.302;2023-11-21T09:33:30;11.00;99.90
17728;DHT22;8984;49.268;12.302;2023-11-21T09:36:01;11.00;99.90
17728;DHT22;8984;49.268;12.302;2023-11-21T09:38:42;11.10;99.90
17728;DHT22;8984;49.268;12.302;2023-11-21T09:41:18;11.10;99.90
17728;DHT22;8984;49.268;12.302;2023-11-21T09:43:53;11.10;99.90
17728;DHT22;8984;49.268;12.302;2023-11-21T09:46:26;11.10;99.90
17728;DHT22;8984;49.268;12.302;2023-11-21T09:49:08;11.10;99.90
17728;DHT22;8984;49.268;12.302;2023-11-21T09:51:42;11.10;99.90
17728;DHT22;8984;49.268;12.302;2023-11-21T09:54:17;11.20;99.90
17728;DHT22;8984;49.268;12.302;2023-11-21T09:56:55;11.20;99.90
17728;DHT22;8984;49.268;12.302;2023-11-21T09:59:25;11.30;99.90
17728;DHT22;8984;49.268;12.302;2023-11-21T10:01:58;11.40;99.90
17728;DHT22;8984;49.268;12.302;2023-11-21T10:04:43;11.30;99.90
17728;DHT22;8984;49.268;12.302;2023-11-21T10:07:14;11.30;99.90
17728;DHT22;8984;49.268;12.302;2023-11-21T10:10:01;11.30;99.90
17728;DHT22;8984;49.268;12.302;2023-11-21T10:12:32;11.30;99.90
17728;DHT22;8984;49.268;12.302;2023-11-21T10:15:13;11.40;99.90
17728;DHT22;8984;49.268;12.302;2023-11-21T10:17:59;11.40;99.90
17728;DHT22;8984;49.268;12.302;2023-11-21T10:20:29;11.40;99.90
17728;DHT22;8984;49.268;12.302;2023-11-21T10:22:59;11.40;99.90
17728;DHT22;8984;49.268;12.302;2023-11-21T10:25:33;11.40;99.90
17728;DHT22;8984;49.268;12.302;2023-11-21T10:28:09;11.50;99.90
17728;DHT22;8984;49.268;12.302;2023-11-21T10:30:38;11.50;99.90
17728;DHT22;8984;49.268;12.302;2023-11-21T10:33:09;11.60;99.90
17728;DHT22;8984;49.268;12.302;2023-11-21T10:35:53;11.60;99.90
17728;DHT22;8984;49.268;12.302;2023-11-21T10:38:23;11.50;99.90
17728;DHT22;8984;49.268;12.302;2023-11-21T10:41:05;11.60;99.90
17728;DHT22;8984;49.268;12.302;2023-11-21T10:43:52;11.60;99.90
17728;DHT22;8984;49.268;12.302;2023-11-21T10:46:22;11.60;99.90
17728;DHT22;8984;49.268;12.302;2023-11-21T10:48:53;11.60;99.90
17728;DHT22;8984;49.268;12.302;2023-11-21T10:51:42;11.60;99.90
17728;DHT22;8984;49.268;12.302;2023-11-21T10:54:20;11.50;99.90
17728;DHT22;8984;49.268;12.302;2023-11-21T10:56:53;11.40;99.90
17728;DHT22;8984;49.268;12.302;2023-11-21T10:59:31;11.40;99.90
17728;DHT22;8984;49.268;12.302;2023-11-21T11:01:58;11.40;99.90
17728;DHT22;8984;49.268;12.302;2023-11-21T11:04:31;11.40;99.90
17728;DHT22;8984;49.268;12.302;2023-11-21T11:07:02;11.40;99.90
17728;DHT22;8984;49.268;12.302;2023-11-21T11:09:35;11.40;99.90
17728;DHT22;8984;49.268;12.302;2023-11-21T11:12:09;11.40;99.90
17728;DHT22;8984;49.268;12.302;2023-11-21T11:14:38;11.40;99.90
17728;DHT22;8984;49.268;12.302;2023-11-21T11:17:13;11.50;99.90
17728;DHT22;8984;49.268;12.302;2023-11-21T11:19:49;11.50;99.90
17728;DHT22;8984;49.268;12.302;2023-11-21T11:22:29;11.60;99.90
17728;DHT22;8984;49.268;12.302;2023-11-21T11:25:25;11.70;99.90
17728;DHT22;8984;49.268;12.302;2023-11-21T11:28:12;11.60;99.90
17728;DHT22;8984;49.268;12.302;2023-11-21T11:30:55;11.40;99.90
17728;DHT22;8984;49.268;12.302;2023-11-21T11:33:41;11.40;99.90
17728;DHT22;8984;49.268;12.302;2023-11-21T11:36:17;11.30;99.90
17728;DHT22;8984;49.268;12.302;2023-11-21T11:38:59;11.20;99.90
17728;DHT22;8984;49.268;12.302;2023-11-21T11:41:32;11.30;99.90
17728;DHT22;8984;49.268;12.302;2023-11-21T11:47:26;11.30;99.90
17728;DHT22;8984;49.268;12.302;2023-11-21T11:50:07;11.40;99.90
17728;DHT22;8984;49.268;12.302;2023-11-21T11:52:41;11.50;99.90
17728;DHT22;8984;49.268;12.302;2023-11-21T11:55:10;11.50;99.90
17728;DHT22;8984;49.268;12.302;2023-11-21T11:57:39;11.60;99.90
17728;DHT22;8984;49.268;12.302;2023-11-21T12:00:34;11.60;99.90
17728;DHT22;8984;49.268;12.302;2023-11-21T12:03:08;11.70;99.90
17728;DHT22;8984;49.268;12.302;2023-11-21T12:05:37;11.70;99.90
17728;DHT22;8984;49.268;12.302;2023-11-21T12:08:16;11.80;99.90
17728;DHT22;8984;49.268;12.302;2023-11-21T12:10:47;11.80;99.90
17728;DHT22;8984;49.268;12.302;2023-11-21T12:13:25;11.90;99.90
17728;DHT22;8984;49.268;12.302;2023-11-21T12:16:04;11.90;99.90
17728;DHT22;8984;49.268;12.302;2023-11-21T12:18:34;11.90;99.90
17728;DHT22;8984;49.268;12.302;2023-11-21T12:21:04;12.00;99.90
17728;DHT22;8984;49.268;12.302;2023-11-21T12:23:38;12.00;99.90
17728;DHT22;8984;49.268;12.302;2023-11-21T12:26:06;12.10;99.90
17728;DHT22;8984;49.268;12.302;2023-11-21T12:28:34;12.10;99.90
17728;DHT22;8984;49.268;12.302;2023-11-21T12:31:03;12.00;99.90
17728;DHT22;8984;49.268;12.302;2023-11-21T12:33:36;12.00;99.90
17728;DHT22;8984;49.268;12.302;2023-11-21T12:36:06;12.10;99.90
17728;DHT22;8984;49.268;12.302;2023-11-21T12:38:42;12.10;99.90
17728;DHT22;8984;49.268;12.302;2023-11-21T12:41:15;12.20;99.90
17728;DHT22;8984;49.268;12.302;2023-11-21T12:43:47;12.20;99.90
17728;DHT22;8984;49.268;12.302;2023-11-21T12:46:21;12.20;99.90
17728;DHT22;8984;49.268;12.302;2023-11-21T12:48:52;12.10;99.90
17728;DHT22;8984;49.268;12.302;2023-11-21T12:51:22;12.20;99.90
17728;DHT22;8984;49.268;12.302;2023-11-21T12:53:52;12.10;99.90
17728;DHT22;8984;49.268;12.302;2023-11-21T12:56:21;12.10;99.90
17728;DHT22;8984;49.268;12.302;2023-11-21T12:58:57;12.10;99.90
17728;DHT22;8984;49.268;12.302;2023-11-21T13:01:28;12.00;99.90
17728;DHT22;8984;49.268;12.302;2023-11-21T13:03:59;12.10;99.90
17728;DHT22;8984;49.268;12.302;2023-11-21T13:06:32;12.00;99.90
17728;DHT22;8984;49.268;12.302;2023-11-21T13:09:12;11.90;99.90
17728;DHT22;8984;49.268;12.302;2023-11-21T13:11:47;11.90;99.90
17728;DHT22;8984;49.268;12.302;2023-11-21T13:14:23;11.90;99.90
17728;DHT22;8984;49.268;12.302;2023-11-21T13:17:01;11.90;99.90
17728;DHT22;8984;49.268;12.302;2023-11-21T13:19:33;11.80;99.90
17728;DHT22;8984;49.268;12.302;2023-11-21T13:22:01;11.80;99.90
17728;DHT22;8984;49.268;12.302;2023-11-21T13:24:34;11.80;99.90
17728;DHT22;8984;49.268;12.302;2023-11-21T13:27:08;11.70;99.90
17728;DHT22;8984;49.268;12.302;2023-11-21T13:29:36;11.80;99.90
17728;DHT22;8984;49.268;12.302;2023-11-21T13:32:09;11.50;99.90
17728;DHT22;8984;49.268;12.302;2023-11-21T13:34:42;11.50;99.90
17728;DHT22;8984;49.268;12.302;2023-11-21T13:37:15;11.50;99.90
17728;DHT22;8984;49.268;12.302;2023-11-21T13:39:45;11.50;99.90
17728;DHT22;8984;49.268;12.302;2023-11-21T13:42:18;11.60;99.90
17728;DHT22;8984;49.268;12.302;2023-11-21T13:44:56;11.60;99.90
17728;DHT22;8984;49.268;12.302;2023-11-21T13:47:30;11.60;99.90
17728;DHT22;8984;49.268;12.302;2023-11-21T13:50:11;11.70;99.90
17728;DHT22;8984;49.268;12.302;2023-11-21T13:52:50;11.70;99.90
17728;DHT22;8984;49.268;12.302;2023-11-21T13:55:19;11.70;99.90
17728;DHT22;8984;49.268;12.302;2023-11-21T13:57:51;11.80;99.90
17728;DHT22;8984;49.268;12.302;2023-11-21T14:00:22;11.60;99.90
17728;DHT22;8984;49.268;12.302;2023-11-21T14:03:11;11.50;99.90
17728;DHT22;8984;49.268;12.302;2023-11-21T14:05:46;11.40;99.90
17728;DHT22;8984;49.268;12.302;2023-11-21T14:08:18;11.60;99.90
17728;DHT22;8984;49.268;12.302;2023-11-21T14:10:47;11.30;99.90
17728;DHT22;8984;49.268;12.302;2023-11-21T14:13:37;11.20;99.90
17728;DHT22;8984;49.268;12.302;2023-11-21T14:16:16;11.20;99.90
17728;DHT22;8984;49.268;12.302;2023-11-21T14:18:51;11.20;99.90
17728;DHT22;8984;49.268;12.302;2023-11-21T14:21:38;11.20;99.90
17728;DHT22;8984;49.268;12.302;2023-11-21T14:26:55;11.30;99.90
17728;DHT22;8984;49.268;12.302;2023-11-21T14:29:25;11.30;99.90
17728;DHT22;8984;49.268;12.302;2023-11-21T14:32:04;11.30;99.90
17728;DHT22;8984;49.268;12.302;2023-11-21T14:34:43;11.30;99.90
17728;DHT22;8984;49.268;12.302;2023-11-21T14:37:12;11.30;99.90
17728;DHT22;8984;49.268;12.302;2023-11-21T14:39:47;11.40;99.90
17728;DHT22;8984;49.268;12.302;2023-11-21T14:42:34;11.40;99.90
17728;DHT22;8984;49.268;12.302;2023-11-21T14:45:07;11.40;99.90
17728;DHT22;8984;49.268;12.302;2023-11-21T14:47:38;11.40;99.90
17728;DHT22;8984;49.268;12.302;2023-11-21T14:50:16;11.40;99.90
17728;DHT22;8984;49.268;12.302;2023-11-21T14:53:01;11.40;99.90
17728;DHT22;8984;49.268;12.302;2023-11-21T14:55:32;11.40;99.90
17728;DHT22;8984;49.268;12.302;2023-11-21T14:58:05;11.40;99.90
17728;DHT22;8984;49.268;12.302;2023-11-21T15:00:42;11.30;99.90
17728;DHT22;8984;49.268;12.302;2023-11-21T15:03:14;11.20;99.90
17728;DHT22;8984;49.268;12.302;2023-11-21T15:06:16;11.30;99.90
17728;DHT22;8984;49.268;12.302;2023-11-21T15:08:56;11.30;99.90
17728;DHT22;8984;49.268;12.302;2023-11-21T15:11:51;11.20;99.90
17728;DHT22;8984;49.268;12.302;2023-11-21T15:14:22;11.20;99.90
17728;DHT22;8984;49.268;12.302;2023-11-21T15:16:57;11.20;99.90
17728;DHT22;8984;49.268;12.302;2023-11-21T15:19:30;11.10;99.90
17728;DHT22;8984;49.268;12.302;2023-11-21T15:22:00;11.10;99.90
17728;DHT22;8984;49.268;12.302;2023-11-21T15:24:29;11.10;99.90
17728;DHT22;8984;49.268;12.302;2023-11-21T15:27:00;11.10;99.90
17728;DHT22;8984;49.268;12.302;2023-11-21T15:29:39;11.00;99.90
17728;DHT22;8984;49.268;12.302;2023-11-21T15:32:09;11.00;99.90
17728;DHT22;8984;49.268;12.302;2023-11-21T15:34:52;11.00;99.90
17728;DHT22;8984;49.268;12.302;2023-11-21T15:37:21;11.00;99.90
17728;DHT22;8984;49.268;12.302;2023-11-21T15:39:54;11.00;99.90
17728;DHT22;8984;49.268;12.302;2023-11-21T15:42:21;10.90;99.90
17728;DHT22;8984;49.268;12.302;2023-11-21T15:45:25;10.90;99.90
17728;DHT22;8984;49.268;12.302;2023-11-21T15:47:57;10.80;99.90
17728;DHT22;8984;49.268;12.302;2023-11-21T15:50:28;10.80;99.90
17728;DHT22;8984;49.268;12.302;2023-11-21T15:53:06;10.70;99.90
17728;DHT22;8984;49.268;12.302;2023-11-21T15:55:38;10.70;99.90
17728;DHT22;8984;49.268;12.302;2023-11-21T15:58:42;10.70;99.90
17728;DHT22;8984;49.268;12.302;2023-11-21T16:01:23;10.60;99.90
17728;DHT22;8984;49.268;12.302;2023-11-21T16:03:56;10.60;99.90
17728;DHT22;8984;49.268;12.302;2023-11-21T16:06:28;10.60;99.90
17728;DHT22;8984;49.268;12.302;2023-11-21T16:08:59;10.60;99.90
17728;DHT22;8984;49.268;12.302;2023-11-21T16:11:42;10.50;99.90
17728;DHT22;8984;49.268;12.302;2023-11-21T16:14:15;10.50;99.90
17728;DHT22;8984;49.268;12.302;2023-11-21T16:16:51;10.40;99.90
17728;DHT22;8984;49.268;12.302;2023-11-21T16:19:25;10.40;99.90
17728;DHT22;8984;49.268;12.302;2023-11-21T16:21:55;10.30;99.90
17728;DHT22;8984;49.268;12.302;2023-11-21T16:24:29;10.30;99.90
17728;DHT22;8984;49.268;12.302;2023-11-21T16:26:59;10.30;99.90
17728;DHT22;8984;49.268;12.302;2023-11-21T16:29:33;10.20;99.90
17728;DHT22;8984;49.268;12.302;2023-11-21T16:32:19;10.20;99.90